sensor_id;sensor_type;location;lat;lon;timestamp;P1;durP1;ratioP1;P2;durP2;ratioP2
18076;SDS011;9165;45.714;11.362;2023-04-15T00:00:03;4.47;;;2.63;;
18076;SDS011;9165;45.714;11.362;2023-04-15T00:02:31;2.60;;;2.00;;
18076;SDS011;9165;45.714;11.362;2023-04-15T00:04:58;2.60;;;2.00;;
18076;SDS011;9165;45.714;11.362;2023-04-15T00:07:25;3.03;;;1.90;;
18076;SDS011;9165;45.714;11.362;2023-04-15T00:09:51;9.33;;;2.43;;
18076;SDS011;9165;45.714;11.362;2023-04-15T00:12:20;2.07;;;1.70;;
18076;SDS011;9165;45.714;11.362;2023-04-15T00:14:46;4.80;;;2.10;;
18076;SDS011;9165;45.714;11.362;2023-04-15T00:17:14;2.20;;;2.00;;
18076;SDS011;9165;45.714;11.362;2023-04-15T00:19:42;2.03;;;1.80;;
18076;SDS011;9165;45.714;11.362;2023-04-15T00:22:09;2.40;;;1.83;;
18076;SDS011;9165;45.714;11.362;2023-04-15T00:24:36;9.30;;;5.33;;
18076;SDS011;9165;45.714;11.362;2023-04-15T00:27:03;2.67;;;1.90;;
18076;SDS011;9165;45.714;11.362;2023-04-15T00:29:29;3.10;;;2.17;;
18076;SDS011;9165;45.714;11.362;2023-04-15T00:31:56;4.33;;;2.20;;
18076;SDS011;9165;45.714;11.362;2023-04-15T00:34:22;2.70;;;2.30;;
18076;SDS011;9165;45.714;11.362;2023-04-15T00:36:51;2.87;;;1.90;;
18076;SDS011;9165;45.714;11.362;2023-04-15T00:39:17;3.63;;;2.03;;
18076;SDS011;9165;45.714;11.362;2023-04-15T00:41:44;2.10;;;1.80;;
18076;SDS011;9165;45.714;11.362;2023-04-15T00:44:11;4.83;;;2.20;;
18076;SDS011;9165;45.714;11.362;2023-04-15T00:46:38;2.17;;;1.67;;
18076;SDS011;9165;45.714;11.362;2023-04-15T00:49:05;2.23;;;1.67;;
18076;SDS011;9165;45.714;11.362;2023-04-15T00:51:32;1.50;;;1.40;;
18076;SDS011;9165;45.714;11.362;2023-04-15T00:54:02;2.97;;;1.50;;
18076;SDS011;9165;45.714;11.362;2023-04-15T00:56:29;2.30;;;1.80;;
18076;SDS011;9165;45.714;11.362;2023-04-15T00:58:56;2.93;;;2.00;;
18076;SDS011;9165;45.714;11.362;2023-04-15T01:01:24;2.10;;;1.90;;
18076;SDS011;9165;45.714;11.362;2023-04-15T01:03:51;2.20;;;2.00;;
18076;SDS011;9165;45.714;11.362;2023-04-15T01:06:18;2.00;;;1.83;;
18076;SDS011;9165;45.714;11.362;2023-04-15T01:08:45;2.00;;;1.67;;
18076;SDS011;9165;45.714;11.362;2023-04-15T01:11:13;2.47;;;1.70;;
18076;SDS011;9165;45.714;11.362;2023-04-15T01:13:40;1.70;;;1.60;;
18076;SDS011;9165;45.714;11.362;2023-04-15T01:16:07;3.23;;;1.70;;
18076;SDS011;9165;45.714;11.362;2023-04-15T01:18:33;3.77;;;1.57;;
18076;SDS011;9165;45.714;11.362;2023-04-15T01:21:00;1.67;;;1.50;;
18076;SDS011;9165;45.714;11.362;2023-04-15T01:23:28;5.07;;;1.70;;
18076;SDS011;9165;45.714;11.362;2023-04-15T01:25:56;2.23;;;1.67;;
18076;SDS011;9165;45.714;11.362;2023-04-15T01:28:23;2.07;;;1.70;;
18076;SDS011;9165;45.714;11.362;2023-04-15T01:30:49;1.67;;;1.50;;
18076;SDS011;9165;45.714;11.362;2023-04-15T01:33:16;2.20;;;2.00;;
18076;SDS011;9165;45.714;11.362;2023-04-15T01:35:42;7.30;;;2.07;;
18076;SDS011;9165;45.714;11.362;2023-04-15T01:38:09;1.60;;;1.50;;
18076;SDS011;9165;45.714;11.362;2023-04-15T01:40:36;3.17;;;1.50;;
18076;SDS011;9165;45.714;11.362;2023-04-15T01:43:06;3.73;;;1.80;;
18076;SDS011;9165;45.714;11.362;2023-04-15T01:45:33;1.83;;;1.47;;
18076;SDS011;9165;45.714;11.362;2023-04-15T01:48:00;2.20;;;1.77;;
18076;SDS011;9165;45.714;11.362;2023-04-15T01:50:27;2.87;;;2.17;;
18076;SDS011;9165;45.714;11.362;2023-04-15T01:52:53;2.60;;;1.80;;
18076;SDS011;9165;45.714;11.362;2023-04-15T01:55:20;2.77;;;1.70;;
18076;SDS011;9165;45.714;11.362;2023-04-15T01:57:46;2.60;;;1.90;;
18076;SDS011;9165;45.714;11.362;2023-04-15T02:00:14;3.10;;;1.80;;
18076;SDS011;9165;45.714;11.362;2023-04-15T02:02:41;2.10;;;1.77;;
18076;SDS011;9165;45.714;11.362;2023-04-15T02:05:08;2.63;;;1.87;;
18076;SDS011;9165;45.714;11.362;2023-04-15T02:07:35;2.00;;;1.70;;
18076;SDS011;9165;45.714;11.362;2023-04-15T02:10:02;2.20;;;1.53;;
18076;SDS011;9165;45.714;11.362;2023-04-15T02:12:28;3.70;;;1.87;;
18076;SDS011;9165;45.714;11.362;2023-04-15T02:14:55;1.93;;;1.60;;
18076;SDS011;9165;45.714;11.362;2023-04-15T02:17:23;2.07;;;1.47;;
18076;SDS011;9165;45.714;11.362;2023-04-15T02:19:49;2.07;;;1.70;;
18076;SDS011;9165;45.714;11.362;2023-04-15T02:22:16;1.97;;;1.63;;
18076;SDS011;9165;45.714;11.362;2023-04-15T02:24:43;2.13;;;1.90;;
18076;SDS011;9165;45.714;11.362;2023-04-15T02:27:14;3.10;;;1.90;;
18076;SDS011;9165;45.714;11.362;2023-04-15T02:29:40;2.43;;;1.80;;
18076;SDS011;9165;45.714;11.362;2023-04-15T02:32:07;2.03;;;1.80;;
18076;SDS011;9165;45.714;11.362;2023-04-15T02:34:35;1.93;;;1.67;;
18076;SDS011;9165;45.714;11.362;2023-04-15T02:37:03;2.30;;;1.90;;
18076;SDS011;9165;45.714;11.362;2023-04-15T02:39:30;3.00;;;2.13;;
18076;SDS011;9165;45.714;11.362;2023-04-15T02:41:56;4.47;;;1.97;;
18076;SDS011;9165;45.714;11.362;2023-04-15T02:44:24;2.50;;;2.00;;
18076;SDS011;9165;45.714;11.362;2023-04-15T02:46:51;2.30;;;2.10;;
18076;SDS011;9165;45.714;11.362;2023-04-15T02:49:18;2.63;;;2.13;;
18076;SDS011;9165;45.714;11.362;2023-04-15T02:51:47;3.37;;;1.90;;
18076;SDS011;9165;45.714;11.362;2023-04-15T02:54:13;2.80;;;2.37;;
18076;SDS011;9165;45.714;11.362;2023-04-15T02:56:40;2.20;;;1.80;;
18076;SDS011;9165;45.714;11.362;2023-04-15T02:59:06;2.20;;;2.00;;
18076;SDS011;9165;45.714;11.362;2023-04-15T03:01:33;2.63;;;1.90;;
18076;SDS011;9165;45.714;11.362;2023-04-15T03:04:00;1.83;;;1.67;;
18076;SDS011;9165;45.714;11.362;2023-04-15T03:06:26;2.10;;;1.90;;
18076;SDS011;9165;45.714;11.362;2023-04-15T03:08:54;3.93;;;2.03;;
18076;SDS011;9165;45.714;11.362;2023-04-15T03:11:21;2.77;;;2.20;;
18076;SDS011;9165;45.714;11.362;2023-04-15T03:13:48;1.93;;;1.83;;
18076;SDS011;9165;45.714;11.362;2023-04-15T03:16:15;5.03;;;2.10;;
18076;SDS011;9165;45.714;11.362;2023-04-15T03:18:41;2.97;;;2.30;;
18076;SDS011;9165;45.714;11.362;2023-04-15T03:21:08;4.07;;;2.40;;
18076;SDS011;9165;45.714;11.362;2023-04-15T03:23:34;4.03;;;2.17;;
18076;SDS011;9165;45.714;11.362;2023-04-15T03:26:03;4.83;;;2.80;;
18076;SDS011;9165;45.714;11.362;2023-04-15T03:28:30;2.93;;;2.63;;
18076;SDS011;9165;45.714;11.362;2023-04-15T03:30:56;2.63;;;2.43;;
18076;SDS011;9165;45.714;11.362;2023-04-15T03:33:23;2.90;;;2.60;;
18076;SDS011;9165;45.714;11.362;2023-04-15T03:35:50;3.40;;;2.60;;
18076;SDS011;9165;45.714;11.362;2023-04-15T03:38:17;2.90;;;2.60;;
18076;SDS011;9165;45.714;11.362;2023-04-15T03:40:44;3.57;;;2.90;;
18076;SDS011;9165;45.714;11.362;2023-04-15T03:43:12;4.93;;;3.53;;
18076;SDS011;9165;45.714;11.362;2023-04-15T03:45:39;3.70;;;2.90;;
18076;SDS011;9165;45.714;11.362;2023-04-15T03:48:06;4.23;;;3.20;;
18076;SDS011;9165;45.714;11.362;2023-04-15T03:50:32;2.83;;;2.50;;
18076;SDS011;9165;45.714;11.362;2023-04-15T03:52:59;4.90;;;3.20;;
18076;SDS011;9165;45.714;11.362;2023-04-15T03:55:26;3.50;;;2.90;;
18076;SDS011;9165;45.714;11.362;2023-04-15T03:57:52;5.73;;;2.40;;
18076;SDS011;9165;45.714;11.362;2023-04-15T04:00:20;3.73;;;2.83;;
18076;SDS011;9165;45.714;11.362;2023-04-15T04:02:47;3.27;;;2.80;;
18076;SDS011;9165;45.714;11.362;2023-04-15T04:05:14;3.67;;;3.20;;
18076;SDS011;9165;45.714;11.362;2023-04-15T04:07:40;4.17;;;3.13;;
18076;SDS011;9165;45.714;11.362;2023-04-15T04:10:07;4.43;;;3.30;;
18076;SDS011;9165;45.714;11.362;2023-04-15T04:12:34;3.67;;;2.77;;
18076;SDS011;9165;45.714;11.362;2023-04-15T04:15:00;5.03;;;3.17;;
18076;SDS011;9165;45.714;11.362;2023-04-15T04:17:28;3.07;;;2.70;;
18076;SDS011;9165;45.714;11.362;2023-04-15T04:19:55;5.97;;;3.70;;
18076;SDS011;9165;45.714;11.362;2023-04-15T04:22:21;5.20;;;3.27;;
18076;SDS011;9165;45.714;11.362;2023-04-15T04:24:48;5.47;;;3.67;;
18076;SDS011;9165;45.714;11.362;2023-04-15T04:27:15;4.63;;;3.67;;
18076;SDS011;9165;45.714;11.362;2023-04-15T04:29:42;5.27;;;3.83;;
18076;SDS011;9165;45.714;11.362;2023-04-15T04:32:08;5.90;;;4.47;;
18076;SDS011;9165;45.714;11.362;2023-04-15T04:34:37;5.40;;;3.70;;
18076;SDS011;9165;45.714;11.362;2023-04-15T04:37:03;4.43;;;3.47;;
18076;SDS011;9165;45.714;11.362;2023-04-15T04:39:31;4.73;;;3.40;;
18076;SDS011;9165;45.714;11.362;2023-04-15T04:41:57;7.87;;;3.83;;
18076;SDS011;9165;45.714;11.362;2023-04-15T04:44:25;6.27;;;3.90;;
18076;SDS011;9165;45.714;11.362;2023-04-15T04:46:51;7.03;;;4.43;;
18076;SDS011;9165;45.714;11.362;2023-04-15T04:49:18;5.27;;;4.43;;
18076;SDS011;9165;45.714;11.362;2023-04-15T04:51:46;5.17;;;3.93;;
18076;SDS011;9165;45.714;11.362;2023-04-15T04:54:13;6.77;;;4.53;;
18076;SDS011;9165;45.714;11.362;2023-04-15T04:56:39;4.60;;;3.77;;
18076;SDS011;9165;45.714;11.362;2023-04-15T04:59:06;6.97;;;5.00;;
18076;SDS011;9165;45.714;11.362;2023-04-15T05:01:33;4.23;;;3.83;;
18076;SDS011;9165;45.714;11.362;2023-04-15T05:04:00;5.63;;;4.00;;
18076;SDS011;9165;45.714;11.362;2023-04-15T05:06:28;6.63;;;4.20;;
18076;SDS011;9165;45.714;11.362;2023-04-15T05:08:57;4.07;;;3.43;;
18076;SDS011;9165;45.714;11.362;2023-04-15T05:11:23;5.60;;;4.10;;
18076;SDS011;9165;45.714;11.362;2023-04-15T05:13:50;5.90;;;3.90;;
18076;SDS011;9165;45.714;11.362;2023-04-15T05:16:17;5.13;;;4.07;;
18076;SDS011;9165;45.714;11.362;2023-04-15T05:18:44;6.10;;;4.40;;
18076;SDS011;9165;45.714;11.362;2023-04-15T05:21:10;6.67;;;4.80;;
18076;SDS011;9165;45.714;11.362;2023-04-15T05:23:37;8.50;;;4.73;;
18076;SDS011;9165;45.714;11.362;2023-04-15T05:26:04;5.90;;;4.43;;
18076;SDS011;9165;45.714;11.362;2023-04-15T05:28:32;5.97;;;4.40;;
18076;SDS011;9165;45.714;11.362;2023-04-15T05:30:58;10.40;;;4.47;;
18076;SDS011;9165;45.714;11.362;2023-04-15T05:33:25;7.63;;;4.93;;
18076;SDS011;9165;45.714;11.362;2023-04-15T05:35:52;5.80;;;4.50;;
18076;SDS011;9165;45.714;11.362;2023-04-15T05:38:18;8.20;;;5.57;;
18076;SDS011;9165;45.714;11.362;2023-04-15T05:40:45;8.67;;;5.20;;
18076;SDS011;9165;45.714;11.362;2023-04-15T05:43:13;6.80;;;5.23;;
18076;SDS011;9165;45.714;11.362;2023-04-15T05:45:40;8.00;;;5.63;;
18076;SDS011;9165;45.714;11.362;2023-04-15T05:48:06;9.30;;;5.13;;
18076;SDS011;9165;45.714;11.362;2023-04-15T05:50:33;6.50;;;5.00;;
18076;SDS011;9165;45.714;11.362;2023-04-15T05:53:00;8.23;;;5.40;;
18076;SDS011;9165;45.714;11.362;2023-04-15T05:55:26;6.33;;;4.60;;
18076;SDS011;9165;45.714;11.362;2023-04-15T05:57:53;13.47;;;6.03;;
18076;SDS011;9165;45.714;11.362;2023-04-15T06:00:22;6.63;;;4.87;;
18076;SDS011;9165;45.714;11.362;2023-04-15T06:02:48;8.67;;;4.87;;
18076;SDS011;9165;45.714;11.362;2023-04-15T06:05:15;6.60;;;4.87;;
18076;SDS011;9165;45.714;11.362;2023-04-15T06:07:42;5.20;;;4.40;;
18076;SDS011;9165;45.714;11.362;2023-04-15T06:10:09;7.07;;;5.13;;
18076;SDS011;9165;45.714;11.362;2023-04-15T06:12:35;7.03;;;5.27;;
18076;SDS011;9165;45.714;11.362;2023-04-15T06:15:02;7.07;;;4.80;;
18076;SDS011;9165;45.714;11.362;2023-04-15T06:17:30;6.77;;;5.13;;
18076;SDS011;9165;45.714;11.362;2023-04-15T06:19:56;5.93;;;4.90;;
18076;SDS011;9165;45.714;11.362;2023-04-15T06:22:23;6.60;;;5.30;;
18076;SDS011;9165;45.714;11.362;2023-04-15T06:24:50;5.50;;;4.60;;
18076;SDS011;9165;45.714;11.362;2023-04-15T06:27:17;8.83;;;5.63;;
18076;SDS011;9165;45.714;11.362;2023-04-15T06:29:43;7.60;;;5.50;;
18076;SDS011;9165;45.714;11.362;2023-04-15T06:32:10;8.83;;;5.73;;
18076;SDS011;9165;45.714;11.362;2023-04-15T06:34:38;7.63;;;5.27;;
18076;SDS011;9165;45.714;11.362;2023-04-15T06:37:05;6.47;;;4.93;;
18076;SDS011;9165;45.714;11.362;2023-04-15T06:39:34;6.90;;;5.70;;
18076;SDS011;9165;45.714;11.362;2023-04-15T06:42:00;6.63;;;5.47;;
18076;SDS011;9165;45.714;11.362;2023-04-15T06:44:28;7.07;;;4.70;;
18076;SDS011;9165;45.714;11.362;2023-04-15T06:46:54;7.60;;;5.03;;
18076;SDS011;9165;45.714;11.362;2023-04-15T06:49:21;5.73;;;4.50;;
18076;SDS011;9165;45.714;11.362;2023-04-15T06:51:49;16.90;;;5.63;;
18076;SDS011;9165;45.714;11.362;2023-04-15T06:54:16;9.27;;;5.17;;
18076;SDS011;9165;45.714;11.362;2023-04-15T06:56:43;8.30;;;5.20;;
18076;SDS011;9165;45.714;11.362;2023-04-15T06:59:10;7.20;;;5.07;;
18076;SDS011;9165;45.714;11.362;2023-04-15T07:01:37;6.33;;;4.53;;
18076;SDS011;9165;45.714;11.362;2023-04-15T07:04:03;8.23;;;5.10;;
18076;SDS011;9165;45.714;11.362;2023-04-15T07:06:30;8.40;;;4.77;;
18076;SDS011;9165;45.714;11.362;2023-04-15T07:08:58;4.77;;;4.03;;
18076;SDS011;9165;45.714;11.362;2023-04-15T07:11:25;6.53;;;4.40;;
18076;SDS011;9165;45.714;11.362;2023-04-15T07:13:52;15.67;;;5.47;;
18076;SDS011;9165;45.714;11.362;2023-04-15T07:16:18;9.37;;;5.00;;
18076;SDS011;9165;45.714;11.362;2023-04-15T07:18:45;6.37;;;5.03;;
18076;SDS011;9165;45.714;11.362;2023-04-15T07:21:12;5.70;;;4.13;;
18076;SDS011;9165;45.714;11.362;2023-04-15T07:23:38;7.83;;;4.83;;
18076;SDS011;9165;45.714;11.362;2023-04-15T07:26:07;6.60;;;3.43;;
18076;SDS011;9165;45.714;11.362;2023-04-15T07:28:35;6.77;;;4.50;;
18076;SDS011;9165;45.714;11.362;2023-04-15T07:31:01;5.50;;;3.77;;
18076;SDS011;9165;45.714;11.362;2023-04-15T07:33:28;5.40;;;4.17;;
18076;SDS011;9165;45.714;11.362;2023-04-15T07:35:55;7.47;;;3.83;;
18076;SDS011;9165;45.714;11.362;2023-04-15T07:38:21;4.80;;;3.53;;
18076;SDS011;9165;45.714;11.362;2023-04-15T07:40:48;6.17;;;4.37;;
18076;SDS011;9165;45.714;11.362;2023-04-15T07:43:16;3.20;;;2.80;;
18076;SDS011;9165;45.714;11.362;2023-04-15T07:45:44;4.43;;;2.73;;
18076;SDS011;9165;45.714;11.362;2023-04-15T07:48:11;4.27;;;2.63;;
18076;SDS011;9165;45.714;11.362;2023-04-15T07:50:37;4.40;;;2.27;;
18076;SDS011;9165;45.714;11.362;2023-04-15T07:53:04;3.13;;;2.30;;
18076;SDS011;9165;45.714;11.362;2023-04-15T07:55:31;2.23;;;2.03;;
18076;SDS011;9165;45.714;11.362;2023-04-15T07:57:57;4.97;;;1.90;;
18076;SDS011;9165;45.714;11.362;2023-04-15T08:00:25;2.40;;;2.20;;
18076;SDS011;9165;45.714;11.362;2023-04-15T08:02:52;3.33;;;2.60;;
18076;SDS011;9165;45.714;11.362;2023-04-15T08:05:21;2.53;;;2.33;;
18076;SDS011;9165;45.714;11.362;2023-04-15T08:07:48;3.37;;;1.87;;
18076;SDS011;9165;45.714;11.362;2023-04-15T08:10:14;4.10;;;2.27;;
18076;SDS011;9165;45.714;11.362;2023-04-15T08:12:41;2.40;;;2.00;;
18076;SDS011;9165;45.714;11.362;2023-04-15T08:15:08;3.03;;;1.90;;
18076;SDS011;9165;45.714;11.362;2023-04-15T08:17:36;2.20;;;2.00;;
18076;SDS011;9165;45.714;11.362;2023-04-15T08:20:03;2.07;;;1.87;;
18076;SDS011;9165;45.714;11.362;2023-04-15T08:22:30;3.57;;;1.93;;
18076;SDS011;9165;45.714;11.362;2023-04-15T08:24:57;2.23;;;2.03;;
18076;SDS011;9165;45.714;11.362;2023-04-15T08:27:23;2.57;;;1.90;;
18076;SDS011;9165;45.714;11.362;2023-04-15T08:29:50;2.87;;;2.10;;
18076;SDS011;9165;45.714;11.362;2023-04-15T08:32:17;3.47;;;3.17;;
18076;SDS011;9165;45.714;11.362;2023-04-15T08:34:45;2.93;;;2.53;;
18076;SDS011;9165;45.714;11.362;2023-04-15T08:37:12;2.80;;;2.40;;
18076;SDS011;9165;45.714;11.362;2023-04-15T08:39:39;3.93;;;1.90;;
18076;SDS011;9165;45.714;11.362;2023-04-15T08:42:07;5.30;;;2.40;;
18076;SDS011;9165;45.714;11.362;2023-04-15T08:44:36;2.73;;;2.10;;
18076;SDS011;9165;45.714;11.362;2023-04-15T08:47:03;3.73;;;2.33;;
18076;SDS011;9165;45.714;11.362;2023-04-15T08:49:33;1.70;;;1.60;;
18076;SDS011;9165;45.714;11.362;2023-04-15T08:52:02;2.20;;;1.63;;
18076;SDS011;9165;45.714;11.362;2023-04-15T08:54:29;1.93;;;1.80;;
18076;SDS011;9165;45.714;11.362;2023-04-15T08:56:56;1.77;;;1.67;;
18076;SDS011;9165;45.714;11.362;2023-04-15T08:59:23;2.60;;;1.90;;
18076;SDS011;9165;45.714;11.362;2023-04-15T09:01:49;4.40;;;1.90;;
18076;SDS011;9165;45.714;11.362;2023-04-15T09:04:16;2.17;;;1.97;;
18076;SDS011;9165;45.714;11.362;2023-04-15T09:06:43;2.30;;;1.83;;
18076;SDS011;9165;45.714;11.362;2023-04-15T09:09:12;2.00;;;1.80;;
18076;SDS011;9165;45.714;11.362;2023-04-15T09:11:39;3.67;;;2.23;;
18076;SDS011;9165;45.714;11.362;2023-04-15T09:14:06;5.10;;;2.67;;
18076;SDS011;9165;45.714;11.362;2023-04-15T09:19:19;2.20;;;2.00;;
18076;SDS011;9165;45.714;11.362;2023-04-15T09:21:46;3.80;;;2.03;;
18076;SDS011;9165;45.714;11.362;2023-04-15T09:24:14;3.20;;;2.80;;
18076;SDS011;9165;45.714;11.362;2023-04-15T09:26:40;3.40;;;2.50;;
18076;SDS011;9165;45.714;11.362;2023-04-15T09:29:08;2.80;;;2.20;;
18076;SDS011;9165;45.714;11.362;2023-04-15T09:31:34;4.60;;;2.87;;
18076;SDS011;9165;45.714;11.362;2023-04-15T09:34:01;3.73;;;2.17;;
18076;SDS011;9165;45.714;11.362;2023-04-15T09:36:28;4.37;;;2.37;;
18076;SDS011;9165;45.714;11.362;2023-04-15T09:38:55;3.47;;;2.33;;
18076;SDS011;9165;45.714;11.362;2023-04-15T09:41:23;5.03;;;1.90;;
18076;SDS011;9165;45.714;11.362;2023-04-15T09:43:50;3.97;;;2.30;;
18076;SDS011;9165;45.714;11.362;2023-04-15T09:46:16;4.17;;;2.00;;
18076;SDS011;9165;45.714;11.362;2023-04-15T09:48:43;2.90;;;2.00;;
18076;SDS011;9165;45.714;11.362;2023-04-15T09:51:10;3.07;;;2.10;;
18076;SDS011;9165;45.714;11.362;2023-04-15T09:53:36;2.27;;;2.00;;
18076;SDS011;9165;45.714;11.362;2023-04-15T09:56:03;3.90;;;1.90;;
18076;SDS011;9165;45.714;11.362;2023-04-15T09:58:33;2.67;;;2.20;;
18076;SDS011;9165;45.714;11.362;2023-04-15T10:01:02;4.17;;;2.27;;
18076;SDS011;9165;45.714;11.362;2023-04-15T10:03:30;2.70;;;2.50;;
18076;SDS011;9165;45.714;11.362;2023-04-15T10:05:57;3.93;;;2.80;;
18076;SDS011;9165;45.714;11.362;2023-04-15T10:08:25;4.17;;;2.77;;
18076;SDS011;9165;45.714;11.362;2023-04-15T10:10:52;3.00;;;2.17;;
18076;SDS011;9165;45.714;11.362;2023-04-15T10:13:20;3.97;;;3.27;;
18076;SDS011;9165;45.714;11.362;2023-04-15T10:15:49;4.80;;;2.80;;
18076;SDS011;9165;45.714;11.362;2023-04-15T10:18:18;3.50;;;2.50;;
18076;SDS011;9165;45.714;11.362;2023-04-15T10:20:45;3.90;;;2.70;;
18076;SDS011;9165;45.714;11.362;2023-04-15T10:23:12;5.23;;;2.37;;
18076;SDS011;9165;45.714;11.362;2023-04-15T10:25:40;3.20;;;2.73;;
18076;SDS011;9165;45.714;11.362;2023-04-15T10:28:07;4.83;;;2.80;;
18076;SDS011;9165;45.714;11.362;2023-04-15T10:30:34;3.70;;;2.30;;
18076;SDS011;9165;45.714;11.362;2023-04-15T10:33:03;5.83;;;2.50;;
18076;SDS011;9165;45.714;11.362;2023-04-15T10:35:30;4.07;;;3.10;;
18076;SDS011;9165;45.714;11.362;2023-04-15T10:37:58;3.10;;;2.80;;
18076;SDS011;9165;45.714;11.362;2023-04-15T10:40:25;7.90;;;5.43;;
18076;SDS011;9165;45.714;11.362;2023-04-15T10:42:53;7.67;;;4.87;;
18076;SDS011;9165;45.714;11.362;2023-04-15T10:45:20;4.60;;;4.03;;
18076;SDS011;9165;45.714;11.362;2023-04-15T10:47:50;5.47;;;3.37;;
18076;SDS011;9165;45.714;11.362;2023-04-15T10:50:19;4.23;;;2.40;;
18076;SDS011;9165;45.714;11.362;2023-04-15T10:52:49;43.83;;;9.07;;
18076;SDS011;9165;45.714;11.362;2023-04-15T10:55:17;3.57;;;3.20;;
18076;SDS011;9165;45.714;11.362;2023-04-15T10:57:44;2.60;;;2.40;;
18076;SDS011;9165;45.714;11.362;2023-04-15T11:00:12;4.63;;;2.43;;
18076;SDS011;9165;45.714;11.362;2023-04-15T11:02:43;4.23;;;2.43;;
18076;SDS011;9165;45.714;11.362;2023-04-15T11:05:11;4.33;;;2.50;;
18076;SDS011;9165;45.714;11.362;2023-04-15T11:07:41;4.37;;;2.70;;
18076;SDS011;9165;45.714;11.362;2023-04-15T11:12:57;2.90;;;2.30;;
18076;SDS011;9165;45.714;11.362;2023-04-15T11:15:26;4.30;;;2.57;;
18076;SDS011;9165;45.714;11.362;2023-04-15T11:17:53;3.10;;;2.73;;
18076;SDS011;9165;45.714;11.362;2023-04-15T11:20:19;3.20;;;2.13;;
18076;SDS011;9165;45.714;11.362;2023-04-15T11:22:48;4.50;;;2.20;;
18076;SDS011;9165;45.714;11.362;2023-04-15T11:25:22;3.77;;;3.30;;
18076;SDS011;9165;45.714;11.362;2023-04-15T11:27:49;5.30;;;2.60;;
18076;SDS011;9165;45.714;11.362;2023-04-15T11:30:17;2.60;;;2.40;;
18076;SDS011;9165;45.714;11.362;2023-04-15T11:32:44;2.87;;;1.93;;
18076;SDS011;9165;45.714;11.362;2023-04-15T11:35:10;3.13;;;2.50;;
18076;SDS011;9165;45.714;11.362;2023-04-15T11:37:37;2.77;;;2.23;;
18076;SDS011;9165;45.714;11.362;2023-04-15T11:40:07;2.93;;;2.60;;
18076;SDS011;9165;45.714;11.362;2023-04-15T11:42:34;3.50;;;2.30;;
18076;SDS011;9165;45.714;11.362;2023-04-15T11:45:07;3.77;;;2.73;;
18076;SDS011;9165;45.714;11.362;2023-04-15T11:47:35;2.83;;;2.50;;
18076;SDS011;9165;45.714;11.362;2023-04-15T11:52:41;5.63;;;2.60;;
18076;SDS011;9165;45.714;11.362;2023-04-15T11:55:19;3.40;;;2.60;;
18076;SDS011;9165;45.714;11.362;2023-04-15T11:57:45;3.70;;;2.20;;
18076;SDS011;9165;45.714;11.362;2023-04-15T12:00:12;2.80;;;1.80;;
18076;SDS011;9165;45.714;11.362;2023-04-15T12:02:39;3.50;;;2.20;;
18076;SDS011;9165;45.714;11.362;2023-04-15T12:05:07;4.17;;;2.60;;
18076;SDS011;9165;45.714;11.362;2023-04-15T12:10:19;2.97;;;2.33;;
18076;SDS011;9165;45.714;11.362;2023-04-15T12:12:47;3.80;;;2.23;;
18076;SDS011;9165;45.714;11.362;2023-04-15T12:15:14;4.47;;;2.23;;
18076;SDS011;9165;45.714;11.362;2023-04-15T12:17:41;2.53;;;2.10;;
18076;SDS011;9165;45.714;11.362;2023-04-15T12:20:07;3.23;;;2.10;;
18076;SDS011;9165;45.714;11.362;2023-04-15T12:22:36;2.17;;;1.97;;
18076;SDS011;9165;45.714;11.362;2023-04-15T12:25:03;3.10;;;2.33;;
18076;SDS011;9165;45.714;11.362;2023-04-15T12:27:31;2.43;;;2.23;;
18076;SDS011;9165;45.714;11.362;2023-04-15T12:30:02;2.20;;;2.00;;
18076;SDS011;9165;45.714;11.362;2023-04-15T12:32:29;2.47;;;2.27;;
18076;SDS011;9165;45.714;11.362;2023-04-15T12:34:56;2.70;;;2.50;;
18076;SDS011;9165;45.714;11.362;2023-04-15T12:37:23;4.73;;;2.90;;
18076;SDS011;9165;45.714;11.362;2023-04-15T12:39:50;6.50;;;2.67;;
18076;SDS011;9165;45.714;11.362;2023-04-15T12:42:18;5.30;;;2.90;;
18076;SDS011;9165;45.714;11.362;2023-04-15T12:44:46;3.10;;;2.70;;
18076;SDS011;9165;45.714;11.362;2023-04-15T12:47:13;3.27;;;2.63;;
18076;SDS011;9165;45.714;11.362;2023-04-15T12:49:39;3.67;;;2.73;;
18076;SDS011;9165;45.714;11.362;2023-04-15T12:52:06;3.57;;;2.97;;
18076;SDS011;9165;45.714;11.362;2023-04-15T12:54:32;3.43;;;2.70;;
18076;SDS011;9165;45.714;11.362;2023-04-15T12:57:00;6.37;;;3.07;;
18076;SDS011;9165;45.714;11.362;2023-04-15T12:59:27;4.03;;;3.30;;
18076;SDS011;9165;45.714;11.362;2023-04-15T13:01:55;3.07;;;2.60;;
18076;SDS011;9165;45.714;11.362;2023-04-15T13:04:21;3.23;;;2.17;;
18076;SDS011;9165;45.714;11.362;2023-04-15T13:06:48;3.03;;;2.73;;
18076;SDS011;9165;45.714;11.362;2023-04-15T13:09:14;4.23;;;2.70;;
18076;SDS011;9165;45.714;11.362;2023-04-15T13:11:41;4.47;;;2.47;;
18076;SDS011;9165;45.714;11.362;2023-04-15T13:14:08;2.77;;;2.57;;
18076;SDS011;9165;45.714;11.362;2023-04-15T13:16:35;3.20;;;2.63;;
18076;SDS011;9165;45.714;11.362;2023-04-15T13:19:03;6.60;;;2.70;;
18076;SDS011;9165;45.714;11.362;2023-04-15T13:21:30;3.20;;;2.53;;
18076;SDS011;9165;45.714;11.362;2023-04-15T13:23:59;2.83;;;2.27;;
18076;SDS011;9165;45.714;11.362;2023-04-15T13:26:25;3.00;;;2.30;;
18076;SDS011;9165;45.714;11.362;2023-04-15T13:28:52;6.53;;;3.13;;
18076;SDS011;9165;45.714;11.362;2023-04-15T13:31:19;2.57;;;2.37;;
18076;SDS011;9165;45.714;11.362;2023-04-15T13:33:45;5.23;;;2.50;;
18076;SDS011;9165;45.714;11.362;2023-04-15T13:36:13;3.47;;;3.00;;
18076;SDS011;9165;45.714;11.362;2023-04-15T13:38:40;6.60;;;3.30;;
18076;SDS011;9165;45.714;11.362;2023-04-15T13:41:06;7.10;;;3.30;;
18076;SDS011;9165;45.714;11.362;2023-04-15T13:43:33;6.60;;;2.53;;
18076;SDS011;9165;45.714;11.362;2023-04-15T13:45:59;2.60;;;2.40;;
18076;SDS011;9165;45.714;11.362;2023-04-15T13:48:26;4.03;;;2.53;;
18076;SDS011;9165;45.714;11.362;2023-04-15T13:50:52;4.47;;;2.63;;
18076;SDS011;9165;45.714;11.362;2023-04-15T13:53:21;4.23;;;1.87;;
18076;SDS011;9165;45.714;11.362;2023-04-15T13:55:47;1.70;;;1.60;;
18076;SDS011;9165;45.714;11.362;2023-04-15T13:58:14;7.60;;;2.70;;
18076;SDS011;9165;45.714;11.362;2023-04-15T14:00:41;2.53;;;1.20;;
18076;SDS011;9165;45.714;11.362;2023-04-15T14:03:08;2.90;;;1.60;;
18076;SDS011;9165;45.714;11.362;2023-04-15T14:05:35;1.37;;;1.10;;
18076;SDS011;9165;45.714;11.362;2023-04-15T14:08:01;2.30;;;1.43;;
18076;SDS011;9165;45.714;11.362;2023-04-15T14:10:29;3.43;;;1.40;;
18076;SDS011;9165;45.714;11.362;2023-04-15T14:12:56;4.13;;;1.60;;
18076;SDS011;9165;45.714;11.362;2023-04-15T14:15:23;1.87;;;1.40;;
18076;SDS011;9165;45.714;11.362;2023-04-15T14:17:49;1.57;;;1.43;;
18076;SDS011;9165;45.714;11.362;2023-04-15T14:20:16;1.93;;;1.00;;
18076;SDS011;9165;45.714;11.362;2023-04-15T14:22:42;4.43;;;1.30;;
18076;SDS011;9165;45.714;11.362;2023-04-15T14:25:09;2.23;;;1.30;;
18076;SDS011;9165;45.714;11.362;2023-04-15T14:27:37;3.37;;;1.30;;
18076;SDS011;9165;45.714;11.362;2023-04-15T14:30:04;1.83;;;1.20;;
18076;SDS011;9165;45.714;11.362;2023-04-15T14:32:31;1.70;;;1.20;;
18076;SDS011;9165;45.714;11.362;2023-04-15T14:34:58;2.53;;;1.40;;
18076;SDS011;9165;45.714;11.362;2023-04-15T14:37:25;6.83;;;2.00;;
18076;SDS011;9165;45.714;11.362;2023-04-15T14:39:52;3.40;;;2.27;;
18076;SDS011;9165;45.714;11.362;2023-04-15T14:42:19;3.80;;;2.13;;
18076;SDS011;9165;45.714;11.362;2023-04-15T14:44:47;1.47;;;1.20;;
18076;SDS011;9165;45.714;11.362;2023-04-15T14:47:14;1.47;;;1.13;;
18076;SDS011;9165;45.714;11.362;2023-04-15T14:49:41;1.20;;;1.10;;
18076;SDS011;9165;45.714;11.362;2023-04-15T14:52:07;1.70;;;1.50;;
18076;SDS011;9165;45.714;11.362;2023-04-15T14:54:34;4.60;;;4.20;;
18076;SDS011;9165;45.714;11.362;2023-04-15T14:57:00;2.50;;;1.77;;